createdAt,value
2022-12-23T00:01:36.885Z,4.43
2022-12-23T00:04:05.303Z,1.70
2022-12-23T00:06:33.499Z,2.93
2022-12-23T00:09:02.979Z,1.70
2022-12-23T00:11:31.159Z,1.67
2022-12-23T00:14:21.603Z,1.40
2022-12-23T00:16:51.554Z,2.20
2022-12-23T00:19:19.866Z,1.30
2022-12-23T00:21:48.337Z,3.70
2022-12-23T00:24:18.073Z,1.30
2022-12-23T00:26:46.200Z,1.63
2022-12-23T00:29:14.323Z,1.83
2022-12-23T00:31:42.429Z,2.57
2022-12-23T00:34:11.847Z,2.03
2022-12-23T00:36:40.867Z,1.30
2022-12-23T00:39:29.752Z,1.33
2022-12-23T00:42:16.836Z,1.83
2022-12-23T00:44:44.962Z,1.50
2022-12-23T00:47:33.059Z,1.73
2022-12-23T00:50:00.220Z,1.60
2022-12-23T00:52:28.324Z,2.07
2022-12-23T00:54:56.432Z,1.13
2022-12-23T00:57:25.941Z,1.60
2022-12-23T00:59:54.089Z,1.00
2022-12-23T01:02:39.770Z,1.30
2022-12-23T01:08:29.019Z,1.43
2022-12-23T01:10:57.368Z,3.23
2022-12-23T01:13:25.491Z,1.00
2022-12-23T01:15:53.867Z,2.17
2022-12-23T01:18:22.048Z,1.93
2022-12-23T01:20:50.162Z,1.03
2022-12-23T01:23:18.256Z,1.70
2022-12-23T01:25:48.266Z,1.50
2022-12-23T01:28:16.365Z,2.50
2022-12-23T01:30:44.466Z,1.50
2022-12-23T01:33:12.522Z,1.27
2022-12-23T01:35:40.596Z,2.40
2022-12-23T01:38:08.736Z,1.83
2022-12-23T01:40:37.391Z,1.17
2022-12-23T01:43:06.010Z,1.37
2022-12-23T01:45:34.747Z,1.20
2022-12-23T01:48:09.970Z,1.77
2022-12-23T01:50:40.717Z,1.43
2022-12-23T01:53:12.890Z,0.67
2022-12-23T01:55:45.588Z,4.63
2022-12-23T01:58:18.467Z,1.30
2022-12-23T02:01:03.928Z,1.03
2022-12-23T02:03:45.062Z,1.17
2022-12-23T02:06:38.480Z,1.30
2022-12-23T02:09:20.458Z,0.60
2022-12-23T02:12:16.255Z,0.80
2022-12-23T02:15:19.817Z,1.07
2022-12-23T02:17:58.699Z,1.23
2022-12-23T02:20:49.333Z,1.57
2022-12-23T02:23:50.010Z,1.10
2022-12-23T02:26:54.406Z,0.80
2022-12-23T02:29:55.156Z,1.33
2022-12-23T02:32:31.227Z,1.30
2022-12-23T02:35:05.772Z,1.13
2022-12-23T02:37:38.340Z,1.40
2022-12-23T02:40:14.018Z,0.93
2022-12-23T02:42:48.884Z,1.30
2022-12-23T02:45:26.494Z,0.67
2022-12-23T02:48:00.829Z,1.40
2022-12-23T02:50:33.786Z,0.80
2022-12-23T02:53:07.701Z,1.47
2022-12-23T02:55:39.293Z,1.10
2022-12-23T02:58:12.081Z,1.30
2022-12-23T03:00:42.838Z,0.77
2022-12-23T03:03:12.604Z,1.07
2022-12-23T03:05:43.179Z,0.80
2022-12-23T03:08:16.879Z,0.80
2022-12-23T03:11:02.364Z,0.83
2022-12-23T03:13:45.716Z,0.50
2022-12-23T03:16:23.644Z,0.70
2022-12-23T03:19:07.210Z,0.80
2022-12-23T03:21:38.971Z,0.60
2022-12-23T03:24:16.526Z,0.53
2022-12-23T03:26:53.146Z,0.87
2022-12-23T03:29:27.274Z,1.13
2022-12-23T03:31:57.756Z,0.83
2022-12-23T03:34:31.094Z,0.67
2022-12-23T03:37:04.490Z,1.20
2022-12-23T03:39:36.060Z,0.97
2022-12-23T03:42:09.949Z,0.70
2022-12-23T03:44:57.102Z,0.50
2022-12-23T03:47:35.517Z,0.80
2022-12-23T03:50:09.072Z,0.60
2022-12-23T03:52:44.376Z,0.57
2022-12-23T03:55:18.707Z,0.83
2022-12-23T03:57:51.902Z,0.70
2022-12-23T04:00:20.146Z,0.83
2022-12-23T04:02:58.728Z,0.67
2022-12-23T04:05:31.465Z,0.80
2022-12-23T04:08:04.635Z,1.30
2022-12-23T04:10:33.099Z,0.90
2022-12-23T04:13:01.302Z,0.60
2022-12-23T04:15:30.058Z,0.87
2022-12-23T04:17:58.780Z,0.73
2022-12-23T04:20:28.262Z,0.53
2022-12-23T04:22:56.386Z,0.70
2022-12-23T04:25:24.616Z,0.60
2022-12-23T04:27:52.712Z,0.80
2022-12-23T04:30:20.995Z,0.67
2022-12-23T04:32:49.066Z,1.17
2022-12-23T04:35:17.387Z,1.23
2022-12-23T04:37:46.881Z,1.07
2022-12-23T04:40:15.327Z,0.60
2022-12-23T04:42:43.473Z,0.80
2022-12-23T04:45:12.060Z,0.60
2022-12-23T04:47:40.641Z,0.70
2022-12-23T04:50:11.668Z,0.60
2022-12-23T04:52:39.784Z,0.50
2022-12-23T04:55:10.370Z,1.10
2022-12-23T04:57:38.460Z,0.43
2022-12-23T05:00:07.921Z,0.83
2022-12-23T05:02:36.190Z,0.50
2022-12-23T05:05:04.618Z,0.67
2022-12-23T05:07:32.700Z,0.70
2022-12-23T05:10:02.043Z,0.60
2022-12-23T05:12:32.002Z,1.00
2022-12-23T05:15:00.125Z,0.73
2022-12-23T05:17:28.268Z,0.60
2022-12-23T05:19:56.370Z,0.40
2022-12-23T05:22:24.446Z,0.40
2022-12-23T05:24:52.549Z,0.50
2022-12-23T05:27:20.613Z,0.60
2022-12-23T05:29:50.102Z,0.63
2022-12-23T05:32:18.247Z,0.50
2022-12-23T05:34:46.355Z,0.70
2022-12-23T05:37:14.480Z,0.50
2022-12-23T05:39:42.587Z,0.67
2022-12-23T05:42:10.731Z,0.50
2022-12-23T05:44:38.812Z,0.63
2022-12-23T05:47:08.280Z,0.47
2022-12-23T05:49:36.407Z,0.43
2022-12-23T05:52:04.565Z,0.40
2022-12-23T05:54:32.679Z,0.43
2022-12-23T05:57:00.745Z,0.50
2022-12-23T05:59:31.309Z,0.50
2022-12-23T06:02:00.248Z,0.50
2022-12-23T06:04:30.011Z,1.10
2022-12-23T06:06:58.287Z,1.30
2022-12-23T06:09:27.270Z,0.77
2022-12-23T06:11:55.396Z,0.70
2022-12-23T06:14:28.584Z,0.77
2022-12-23T06:16:57.462Z,0.47
2022-12-23T06:19:30.346Z,0.50
2022-12-23T06:21:58.449Z,0.90
2022-12-23T06:24:26.572Z,0.67
2022-12-23T06:26:57.280Z,0.40
2022-12-23T06:29:26.055Z,0.60
2022-12-23T06:31:54.200Z,0.50
2022-12-23T06:34:22.368Z,0.80
2022-12-23T06:36:51.858Z,0.60
2022-12-23T06:39:20.311Z,0.50
2022-12-23T06:41:48.571Z,1.60
2022-12-23T06:44:17.053Z,0.50
2022-12-23T06:46:45.207Z,0.60
2022-12-23T06:49:13.956Z,0.80
2022-12-23T06:51:42.446Z,0.37
2022-12-23T06:54:13.090Z,1.70
2022-12-23T06:56:41.357Z,0.80
2022-12-23T06:59:09.547Z,0.97
2022-12-23T07:01:38.006Z,0.87
2022-12-23T07:04:06.521Z,0.50
2022-12-23T07:06:34.688Z,0.50
2022-12-23T07:09:02.828Z,1.10
2022-12-23T07:11:32.313Z,0.70
2022-12-23T07:14:00.538Z,2.00
2022-12-23T07:16:28.762Z,0.67
2022-12-23T07:18:57.012Z,1.27
2022-12-23T07:21:29.381Z,0.90
2022-12-23T07:23:58.092Z,0.77
2022-12-23T07:26:26.232Z,0.40
2022-12-23T07:28:55.715Z,0.93
2022-12-23T07:31:23.931Z,1.90
2022-12-23T07:33:52.101Z,2.63
2022-12-23T07:36:20.251Z,1.33
2022-12-23T07:38:51.397Z,1.20
2022-12-23T07:41:19.556Z,0.70
2022-12-23T07:43:47.734Z,4.30
2022-12-23T07:46:17.315Z,2.47
2022-12-23T07:48:45.536Z,1.33
2022-12-23T07:51:13.751Z,3.20
2022-12-23T07:53:41.827Z,1.10
2022-12-23T07:56:09.978Z,1.37
2022-12-23T07:58:38.065Z,0.97
2022-12-23T08:01:08.888Z,1.33
2022-12-23T08:03:38.609Z,1.33
2022-12-23T08:06:08.368Z,2.47
2022-12-23T08:08:36.957Z,2.13
2022-12-23T08:11:08.074Z,2.07
2022-12-23T08:13:39.256Z,2.17
2022-12-23T08:16:08.942Z,2.37
2022-12-23T08:18:40.592Z,2.17
2022-12-23T08:21:11.912Z,1.20
2022-12-23T08:23:40.051Z,3.20
2022-12-23T08:26:10.035Z,1.50
2022-12-23T08:28:40.515Z,2.60
2022-12-23T08:31:10.174Z,1.30
2022-12-23T08:33:40.906Z,1.63
2022-12-23T08:36:11.333Z,1.57
2022-12-23T08:38:39.478Z,2.10
2022-12-23T08:41:10.406Z,1.23
2022-12-23T08:43:38.603Z,1.73
2022-12-23T08:46:07.502Z,3.33
2022-12-23T08:48:36.701Z,1.10
2022-12-23T08:51:08.453Z,1.60
2022-12-23T08:53:38.288Z,4.30
2022-12-23T08:56:08.641Z,3.60
2022-12-23T08:58:38.443Z,2.10
2022-12-23T09:01:07.786Z,1.43
2022-12-23T09:03:36.991Z,2.57
2022-12-23T09:06:09.071Z,1.67
2022-12-23T09:08:37.568Z,4.10
2022-12-23T09:11:05.937Z,1.57
2022-12-23T09:13:35.873Z,1.03
2022-12-23T09:16:04.450Z,1.70
2022-12-23T09:18:32.814Z,1.90
2022-12-23T09:21:01.793Z,0.80
2022-12-23T09:23:31.816Z,3.50
2022-12-23T09:26:00.204Z,1.87
2022-12-23T09:28:28.402Z,3.03
2022-12-23T09:30:56.581Z,6.27
2022-12-23T09:33:24.807Z,7.90
2022-12-23T09:35:52.912Z,6.37
2022-12-23T09:38:21.076Z,7.60
2022-12-23T09:40:50.558Z,8.13
2022-12-23T09:43:30.291Z,4.43
2022-12-23T09:46:07.537Z,4.33
2022-12-23T09:48:40.160Z,4.40
2022-12-23T09:51:10.320Z,5.13
2022-12-23T09:53:50.238Z,3.73
2022-12-23T09:56:26.225Z,5.80
2022-12-23T09:59:02.090Z,3.37
2022-12-23T10:01:42.989Z,4.75
2022-12-23T10:04:43.905Z,5.60
2022-12-23T10:07:29.742Z,8.20
2022-12-23T10:10:04.210Z,4.90
2022-12-23T10:12:40.224Z,5.43
2022-12-23T10:15:21.547Z,9.27
2022-12-23T10:17:54.583Z,10.70
2022-12-23T10:20:31.268Z,13.43
2022-12-23T10:23:00.703Z,12.33
2022-12-23T10:25:34.574Z,19.33
2022-12-23T10:28:04.532Z,19.03
2022-12-23T10:33:37.693Z,11.83
2022-12-23T10:36:11.617Z,19.63
2022-12-23T10:38:55.030Z,23.67
2022-12-23T10:41:33.218Z,20.50
2022-12-23T10:44:26.125Z,26.43
2022-12-23T10:47:05.623Z,19.70
2022-12-23T10:49:46.009Z,22.97
2022-12-23T10:52:19.220Z,19.97
2022-12-23T10:54:48.700Z,23.03
2022-12-23T10:57:19.493Z,29.00
2022-12-23T10:59:48.973Z,19.47
2022-12-23T11:02:38.036Z,22.20
2022-12-23T11:05:15.667Z,24.77
2022-12-23T11:07:46.711Z,19.30
2022-12-23T11:10:18.957Z,24.93
2022-12-23T11:12:49.902Z,23.67
2022-12-23T11:15:33.857Z,26.00
2022-12-23T11:18:04.662Z,17.50
2022-12-23T11:20:33.864Z,22.70
2022-12-23T11:23:04.156Z,24.70
2022-12-23T11:25:35.414Z,19.50
2022-12-23T11:28:08.692Z,20.23
2022-12-23T11:30:55.150Z,23.17
2022-12-23T11:33:28.059Z,18.53
2022-12-23T11:36:07.976Z,21.30
2022-12-23T11:38:47.517Z,17.40
2022-12-23T11:41:21.909Z,19.67
2022-12-23T11:43:57.256Z,16.03
2022-12-23T11:46:29.259Z,16.23
2022-12-23T11:49:18.803Z,16.70
2022-12-23T11:51:50.136Z,15.63
2022-12-23T11:54:21.527Z,17.90
2022-12-23T11:56:51.998Z,16.20
2022-12-23T11:59:30.233Z,21.03
2022-12-23T12:02:02.292Z,12.70
2022-12-23T12:04:33.822Z,17.63
2022-12-23T12:07:04.216Z,17.37
2022-12-23T12:09:33.408Z,17.33
2022-12-23T12:12:06.739Z,12.13
2022-12-23T12:14:44.347Z,20.60
2022-12-23T12:17:20.712Z,15.00
2022-12-23T12:19:59.809Z,15.57
2022-12-23T12:22:34.609Z,10.30
2022-12-23T12:25:13.100Z,16.50
2022-12-23T12:27:44.329Z,13.67
2022-12-23T12:30:18.228Z,16.17
2022-12-23T12:33:04.171Z,18.37
2022-12-23T12:35:38.832Z,12.60
2022-12-23T12:38:14.345Z,13.50
2022-12-23T12:40:46.467Z,13.93
2022-12-23T12:43:25.086Z,12.23
2022-12-23T12:46:00.102Z,11.33
2022-12-23T12:48:41.773Z,9.43
2022-12-23T12:51:19.829Z,11.70
2022-12-23T12:54:05.592Z,11.50
2022-12-23T12:56:41.650Z,13.67
2022-12-23T12:59:17.102Z,12.83
2022-12-23T13:01:54.068Z,10.73
2022-12-23T13:04:56.108Z,14.40
2022-12-23T13:07:33.185Z,14.50
2022-12-23T13:10:10.389Z,9.50
2022-12-23T13:12:51.336Z,10.50
2022-12-23T13:15:24.681Z,12.63
2022-12-23T13:18:09.503Z,15.60
2022-12-23T13:20:46.284Z,10.93
2022-12-23T13:23:42.167Z,12.00
2022-12-23T13:26:18.474Z,14.73
2022-12-23T13:28:55.844Z,11.50
2022-12-23T13:31:39.520Z,12.20
2022-12-23T13:34:17.509Z,11.17
2022-12-23T13:36:55.097Z,9.40
2022-12-23T13:39:34.093Z,9.17
2022-12-23T13:42:05.916Z,13.87
2022-12-23T13:44:36.318Z,10.07
2022-12-23T13:47:13.409Z,13.07
2022-12-23T13:49:53.774Z,12.53
2022-12-23T13:52:35.833Z,8.73
2022-12-23T13:55:16.715Z,12.20
2022-12-23T13:57:56.293Z,8.90
2022-12-23T14:00:28.211Z,12.13
2022-12-23T14:03:18.439Z,13.80
2022-12-23T14:05:50.373Z,10.33
2022-12-23T14:08:27.040Z,12.43
2022-12-23T14:10:57.903Z,13.00
2022-12-23T14:13:29.319Z,11.27
2022-12-23T14:16:19.328Z,13.93
2022-12-23T14:19:29.361Z,13.90
2022-12-23T14:22:11.035Z,7.33
2022-12-23T14:25:12.423Z,15.33
2022-12-23T14:27:51.156Z,8.40
2022-12-23T14:30:25.281Z,6.07
2022-12-23T14:32:58.101Z,14.20
2022-12-23T14:35:29.043Z,12.70
2022-12-23T14:38:22.056Z,8.23
2022-12-23T14:41:34.993Z,11.07
2022-12-23T14:44:04.590Z,9.70
2022-12-23T14:46:57.934Z,13.57
2022-12-23T14:49:47.255Z,8.30
2022-12-23T14:52:48.348Z,10.40
2022-12-23T14:55:47.808Z,12.83
2022-12-23T14:58:48.997Z,9.00
2022-12-23T15:01:21.167Z,11.30
2022-12-23T15:03:54.484Z,7.17
2022-12-23T15:06:33.836Z,7.77
2022-12-23T15:09:03.307Z,14.07
2022-12-23T15:11:34.553Z,9.03
2022-12-23T15:14:05.358Z,11.17
2022-12-23T15:16:37.226Z,6.87
2022-12-23T15:19:20.046Z,12.50
2022-12-23T15:21:54.419Z,5.70
2022-12-23T15:24:27.155Z,8.27
2022-12-23T15:27:25.260Z,8.27
2022-12-23T15:29:46.784Z,9.43
2022-12-23T15:32:16.787Z,9.40
2022-12-23T15:34:45.715Z,7.03
2022-12-23T15:37:17.945Z,11.80
2022-12-23T15:39:46.958Z,6.77
2022-12-23T15:42:25.676Z,8.10
2022-12-23T15:44:53.972Z,5.97
2022-12-23T15:47:30.182Z,6.10
2022-12-23T15:50:00.168Z,9.27
2022-12-23T15:52:30.299Z,13.67
2022-12-23T15:55:03.737Z,8.50
2022-12-23T15:57:32.419Z,8.67
2022-12-23T16:00:01.005Z,6.00
2022-12-23T16:03:00.330Z,9.03
2022-12-23T16:05:29.672Z,7.77
2022-12-23T16:08:11.834Z,6.73
2022-12-23T16:10:40.983Z,7.40
2022-12-23T16:13:18.334Z,6.63
2022-12-23T16:15:47.105Z,7.90
2022-12-23T16:18:22.889Z,9.07
2022-12-23T16:20:53.479Z,13.40
2022-12-23T16:23:22.855Z,6.20
2022-12-23T16:25:53.944Z,10.97
2022-12-23T16:28:24.405Z,6.77
2022-12-23T16:30:54.702Z,7.90
2022-12-23T16:33:33.083Z,4.60
2022-12-23T16:36:16.531Z,5.73
2022-12-23T16:38:45.259Z,7.47
2022-12-23T16:41:13.316Z,6.40
2022-12-23T16:43:47.663Z,8.77
2022-12-23T16:46:22.209Z,4.93
2022-12-23T16:48:55.428Z,4.40
2022-12-23T16:51:24.727Z,6.60
2022-12-23T16:53:55.209Z,4.67
2022-12-23T16:56:25.520Z,6.40
2022-12-23T16:58:53.639Z,6.47
2022-12-23T17:01:24.682Z,10.00
2022-12-23T17:03:55.904Z,6.13
2022-12-23T17:06:24.640Z,6.40
2022-12-23T17:08:54.127Z,3.10
2022-12-23T17:11:25.135Z,5.00
2022-12-23T17:13:56.588Z,5.83
2022-12-23T17:16:29.768Z,2.83
2022-12-23T17:19:00.047Z,3.20
2022-12-23T17:21:32.406Z,4.20
2022-12-23T17:24:06.139Z,3.17
2022-12-23T17:26:34.341Z,5.80
2022-12-23T17:29:03.410Z,4.60
2022-12-23T17:31:32.995Z,3.50
2022-12-23T17:34:03.215Z,4.30
2022-12-23T17:36:31.716Z,3.00
2022-12-23T17:38:59.939Z,4.00
2022-12-23T17:41:29.578Z,5.07
2022-12-23T17:43:58.148Z,2.97
2022-12-23T17:46:27.094Z,4.10
2022-12-23T17:48:57.153Z,4.97
2022-12-23T17:51:27.692Z,4.23
2022-12-23T17:53:58.242Z,3.43
2022-12-23T17:56:28.821Z,2.80
2022-12-23T17:58:56.976Z,5.70
2022-12-23T18:01:26.712Z,2.90
2022-12-23T18:03:55.344Z,4.23
2022-12-23T18:06:24.592Z,3.97
2022-12-23T18:08:54.220Z,3.00
2022-12-23T18:11:27.916Z,3.43
2022-12-23T18:13:56.054Z,2.90
2022-12-23T18:16:24.203Z,4.87
2022-12-23T18:18:52.952Z,3.53
2022-12-23T18:21:23.755Z,5.07
2022-12-23T18:23:55.004Z,2.90
2022-12-23T18:26:23.176Z,3.60
2022-12-23T18:28:52.706Z,2.77
2022-12-23T18:31:23.914Z,4.33
2022-12-23T18:33:53.037Z,3.07
2022-12-23T18:36:25.308Z,4.67
2022-12-23T18:38:56.496Z,3.17
2022-12-23T18:41:25.858Z,3.80
2022-12-23T18:43:54.276Z,2.00
2022-12-23T18:46:22.911Z,2.97
2022-12-23T18:48:51.604Z,3.23
2022-12-23T18:51:22.596Z,2.33
2022-12-23T18:53:50.751Z,1.90
2022-12-23T18:56:21.401Z,2.23
2022-12-23T18:58:50.033Z,2.33
2022-12-23T19:01:19.524Z,1.83
2022-12-23T19:03:48.008Z,2.43
2022-12-23T19:06:16.821Z,2.40
2022-12-23T19:08:45.587Z,5.63
2022-12-23T19:11:16.000Z,3.23
2022-12-23T19:13:45.656Z,2.63
2022-12-23T19:16:15.152Z,1.53
2022-12-23T19:18:43.612Z,3.57
2022-12-23T19:21:11.788Z,3.10
2022-12-23T19:23:41.678Z,3.60
2022-12-23T19:26:10.885Z,2.70
2022-12-23T19:28:41.338Z,1.37
2022-12-23T19:31:12.645Z,3.70
2022-12-23T19:33:42.162Z,2.93
2022-12-23T19:36:11.416Z,3.17
2022-12-23T19:38:39.728Z,2.13
2022-12-23T19:41:08.516Z,3.70
2022-12-23T19:43:38.000Z,2.00
2022-12-23T19:46:08.886Z,2.43
2022-12-23T19:49:47.575Z,1.97
2022-12-23T19:52:17.109Z,5.13
2022-12-23T19:54:45.269Z,2.50
2022-12-23T19:57:13.412Z,2.60
2022-12-23T19:59:41.525Z,2.23
2022-12-23T20:02:14.028Z,2.33
2022-12-23T20:04:42.839Z,4.97
2022-12-23T20:07:11.565Z,4.47
2022-12-23T20:09:41.818Z,3.30
2022-12-23T20:12:09.937Z,3.40
2022-12-23T20:14:38.189Z,4.60
2022-12-23T20:17:06.353Z,4.07
2022-12-23T20:19:35.426Z,2.63
2022-12-23T20:22:06.026Z,2.53
2022-12-23T20:24:35.927Z,2.93
2022-12-23T20:27:10.924Z,3.53
2022-12-23T20:29:40.112Z,3.50
2022-12-23T20:32:08.200Z,7.70
2022-12-23T20:34:39.452Z,2.70
2022-12-23T20:37:08.593Z,2.97
2022-12-23T20:39:36.699Z,3.80
2022-12-23T20:42:06.877Z,3.70
2022-12-23T20:44:36.996Z,4.50
2022-12-23T20:47:11.252Z,8.57
2022-12-23T20:49:39.438Z,3.40
2022-12-23T20:52:07.626Z,3.50
2022-12-23T20:54:35.772Z,4.43
2022-12-23T20:57:04.088Z,4.33
2022-12-23T20:59:33.908Z,4.67
2022-12-23T21:02:02.461Z,3.77
2022-12-23T21:04:30.660Z,3.77
2022-12-23T21:06:58.802Z,5.10
2022-12-23T21:09:26.990Z,3.53
2022-12-23T21:11:55.118Z,3.67
2022-12-23T21:14:23.260Z,4.70
2022-12-23T21:16:52.758Z,4.17
2022-12-23T21:19:22.893Z,5.70
2022-12-23T21:21:51.903Z,3.80
2022-12-23T21:24:20.708Z,5.80
2022-12-23T21:26:56.519Z,7.47
2022-12-23T21:29:27.743Z,6.00
2022-12-23T21:31:57.312Z,4.77
2022-12-23T21:34:26.203Z,5.47
2022-12-23T21:36:54.363Z,5.80
2022-12-23T21:39:22.557Z,5.47
2022-12-23T21:41:51.489Z,4.17
2022-12-23T21:44:19.904Z,9.27
2022-12-23T21:46:49.881Z,7.23
2022-12-23T21:49:21.321Z,5.23
2022-12-23T21:51:49.456Z,9.50
2022-12-23T21:54:17.544Z,9.67
2022-12-23T21:56:45.643Z,11.10
2022-12-23T21:59:15.455Z,6.00
2022-12-23T22:01:44.423Z,6.13
2022-12-23T22:04:12.972Z,5.53
2022-12-23T22:06:46.059Z,5.27
2022-12-23T22:09:16.788Z,9.00
2022-12-23T22:11:45.626Z,6.23
2022-12-23T22:14:15.700Z,8.70
2022-12-23T22:16:44.127Z,10.60
2022-12-23T22:19:12.979Z,5.70
2022-12-23T22:21:42.556Z,4.73
2022-12-23T22:24:12.258Z,5.60
2022-12-23T22:26:41.306Z,6.10
2022-12-23T22:29:09.466Z,3.53
2022-12-23T22:31:40.569Z,5.93
2022-12-23T22:34:09.532Z,4.77
2022-12-23T22:36:37.795Z,4.83
2022-12-23T22:39:07.790Z,7.03
2022-12-23T22:41:37.782Z,7.40
2022-12-23T22:44:06.089Z,4.60
2022-12-23T22:46:34.500Z,6.60
2022-12-23T22:49:02.767Z,4.70
2022-12-23T22:51:32.227Z,8.30
2022-12-23T22:54:02.737Z,3.00
2022-12-23T22:56:31.132Z,5.23
2022-12-23T22:59:00.781Z,6.70
2022-12-23T23:01:30.470Z,2.97
2022-12-23T23:04:01.388Z,3.40
2022-12-23T23:06:31.436Z,5.70
2022-12-23T23:09:00.384Z,6.70
2022-12-23T23:11:29.288Z,3.20
2022-12-23T23:13:57.864Z,4.27
2022-12-23T23:16:27.982Z,3.60
2022-12-23T23:18:56.319Z,3.00
2022-12-23T23:21:24.421Z,4.07
2022-12-23T23:23:52.916Z,5.20
2022-12-23T23:26:22.027Z,3.80
2022-12-23T23:28:50.356Z,4.43
2022-12-23T23:34:07.915Z,4.70
2022-12-23T23:36:36.043Z,4.10
2022-12-23T23:39:04.149Z,3.30
2022-12-23T23:41:32.290Z,3.20
2022-12-23T23:44:00.388Z,6.50
2022-12-23T23:46:28.909Z,4.33
2022-12-23T23:48:57.499Z,1.97
2022-12-23T23:51:27.291Z,5.17
2022-12-23T23:53:55.510Z,2.43
2022-12-23T23:56:26.266Z,3.67
2022-12-23T23:58:55.818Z,2.63
